Strona główna
METAR-TAF:

METAR-TAF

Lotnisko :

Hagerstown, Maryland, Stany Zjednoczone

Szerokość geograficzna: 39-42-21N, Długość geograficzna: 077-43-48W, wysokość: 214 m

Aktualna obserwacja pogody

Raport powstał 1 godzina i 3 minut temu, godzina 02:53 UTC
Wiatr 7 kt od południe
Temperatura 14°C
Wilgotność 51%
Ciśnienie 1009 hPa
Widzialność: 16.1 km
bezchmurnie

METAR: KHGR 120253Z 18007KT 10SM CLR 14/04 A2979 RMK AO2 SLP096 T01440039 58010

czas: 22:56 (03:56 UTC)


TAF: brakujący

Obserwacja i prognoza pogody dla ponad 4000 lotnisk (raport METAR i TAF).

Dostępne stacje oznaczono żółtymi i czerwonymi punktami na mapie.

Najedź kursorem aby zobaczyć nazwę stacji.

Kliknij aby zobaczyć obserwacje i prognozy pogody.

Aby zmienić mapę: kliknij na zielony przycisk z czarnym krzyżykiem, aby powiększyć; na zielony przycisk z myślnikiem, aby pomniejszyć; na zielone strzałki, aby przejść do map sąsiednich.


METAR-TAF: